Archival Weather

Chicago O'Hare International

Chicago, Illinois (KORD)

Report from: Wednesday, September 6, 2023 11:51 PM CDT
Current time: Wednesday, May 29, 2024 8:11 PM CDT

Current weather – Weather history – Daily summaries
Weather forecast

Present weatherLight drizzle, mist
Temperature21.7°C (71.1°F)
Dew point19.4°C (66.9°F)
Winds 11 kts (5.7 m/s, 12.7 mph) West-Northwest (290°)
Wind gusts 17 kts (8.7 m/s, 19.6 mph)
Visibility5 mi. (8 km)
Clouds Ceiling: Overcast 1,800 ft. (549 m)
Altimeter29.79 in.Hg (1009 mB)
PrecipitiationTrace
Precip. events Rain began 4:26 AM
Rain ended 4:51 AM
Drizzle began 4:51 AM
Relative humidity87 %
Density altitude1,254 ft. (382 m)
Sea-level pressure100.8 kPa (1008 mB, 29.78 in.Hg)
Remarks Automated weather observing station with precipitation discriminator
Flight conditions Marginal Visual Meteorological Conditions
Raw dataKORD 070451Z 29011G17KT 5SM -DZ BR OVC018 22/19 A2979 RMK AO2 RAB26E51DZB51 SLP083 P0000 T02170194
An error has occurred. This application may no longer respond until reloaded. Reload 🗙